Time;durP1;ratioP1;P1;durP2;ratioP2;P2;SDS_P1;SDS_P2;PMS_P1;PMS_P2;Temp;Humidity;BMP_temperature;BMP_pressure;BME280_temperature;BME280_humidity;BME280_pressure;Samples;Min_cycle;Max_cycle;Signal;HPM_P1;HPM_P2
2023/08/29 00:00:19;;;;;;;7.10;4.40;;;;;;;23.16;55.03;96411.97;5069119;28;20574;-75
2023/08/29 00:02:48;;;;;;;9.87;4.77;;;;;;;23.22;54.81;96412.13;5067585;28;20222;-80
2023/08/29 00:05:15;;;;;;;6.03;4.43;;;;;;;23.34;54.23;96400.28;5069741;28;20197;-77
2023/08/29 00:07:42;;;;;;;7.17;4.67;;;;;;;23.43;53.57;96417.00;5070113;28;20186;-77
2023/08/29 00:10:10;;;;;;;7.07;4.73;;;;;;;23.19;54.07;96419.53;5068819;28;20207;-79
2023/08/29 00:12:38;;;;;;;8.83;4.50;;;;;;;23.11;53.78;96420.38;5069275;28;20209;-81
2023/08/29 00:15:06;;;;;;;7.70;4.43;;;;;;;22.93;54.87;96432.88;5067779;28;20213;-81
2023/08/29 00:17:33;;;;;;;5.67;4.07;;;;;;;23.04;54.27;96415.91;5068668;28;20201;-78
2023/08/29 00:20:02;;;;;;;5.47;4.47;;;;;;;22.85;54.82;96422.28;5069884;28;20276;-80
2023/08/29 00:22:32;;;;;;;6.87;4.30;;;;;;;22.85;55.04;96432.00;5070345;28;20230;-82
2023/08/29 00:24:59;;;;;;;7.77;4.53;;;;;;;22.46;55.73;96426.38;5069158;28;20722;-77
2023/08/29 00:27:29;;;;;;;7.30;4.90;;;;;;;22.17;56.00;96405.63;5068725;28;20200;-75
2023/08/29 00:29:56;;;;;;;7.30;4.80;;;;;;;21.99;56.86;96427.78;5068718;28;20223;-75
2023/08/29 00:32:26;;;;;;;5.70;4.67;;;;;;;21.66;58.07;96422.22;5066963;28;20188;-76
2023/08/29 00:34:53;;;;;;;5.83;4.80;;;;;;;21.64;58.01;96424.19;5067036;28;20190;-76
2023/08/29 00:37:21;;;;;;;9.77;5.33;;;;;;;21.91;57.60;96430.34;5068753;28;20245;-81
2023/08/29 00:39:48;;;;;;;6.50;4.53;;;;;;;22.21;57.15;96430.72;5066804;28;20314;-75
2023/08/29 00:42:15;;;;;;;7.83;5.30;;;;;;;22.40;56.17;96411.19;5063559;28;20307;-76
2023/08/29 00:44:43;;;;;;;6.73;4.80;;;;;;;22.62;55.65;96426.50;5051376;28;20228;-76
2023/08/29 00:47:10;;;;;;;6.73;5.37;;;;;;;22.73;55.20;96430.66;5049280;28;21097;-76
2023/08/29 00:49:38;;;;;;;6.47;4.57;;;;;;;22.56;55.84;96435.00;5033000;28;20587;-76
2023/08/29 00:52:05;;;;;;;5.73;5.13;;;;;;;22.13;56.96;96433.31;5050818;28;20197;-78
2023/08/29 00:54:33;;;;;;;6.60;5.13;;;;;;;22.02;57.53;96423.00;5050980;28;20193;-78
2023/08/29 00:57:00;;;;;;;8.07;5.67;;;;;;;21.77;58.46;96418.50;5056140;28;20200;-78
2023/08/29 00:59:29;;;;;;;9.83;5.33;;;;;;;21.61;58.76;96405.22;5068479;28;20191;-76
2023/08/29 01:01:57;;;;;;;7.30;5.53;;;;;;;21.44;59.78;96406.06;5067800;28;20230;-80
2023/08/29 01:04:24;;;;;;;9.20;5.37;;;;;;;21.33;60.30;96409.75;5069000;28;20204;-75
2023/08/29 01:06:55;;;;;;;8.30;5.53;;;;;;;21.69;59.82;96405.28;5066350;28;20241;-79
2023/08/29 01:09:23;;;;;;;8.00;6.23;;;;;;;21.97;58.97;96416.56;5068147;28;20195;-77
2023/08/29 01:12:09;;;;;;;7.30;5.70;;;;;;;22.28;58.05;96399.22;5068867;28;20237;-81
2023/08/29 01:14:58;;;;;;;7.50;6.47;;;;;;;22.30;58.49;96406.00;5069964;28;20678;-83
2023/08/29 01:17:32;;;;;;;8.30;6.13;;;;;;;22.37;58.96;96401.78;5070557;28;20202;-82
2023/08/29 01:20:00;;;;;;;12.17;5.90;;;;;;;22.54;58.33;96408.78;5067498;28;20234;-78
2023/08/29 01:22:46;;;;;;;9.73;6.30;;;;;;;22.45;58.35;96401.81;5050593;28;20227;-78
2023/08/29 01:25:45;;;;;;;9.37;6.40;;;;;;;22.53;58.11;96401.84;5048599;28;20600;-78
2023/08/29 01:28:13;;;;;;;7.43;6.33;;;;;;;22.21;58.22;96377.13;5048370;28;20274;-78
2023/08/29 01:30:41;;;;;;;6.93;5.90;;;;;;;21.88;58.99;96365.56;5030525;28;20207;-80
2023/08/29 01:33:09;;;;;;;7.27;5.27;;;;;;;21.57;60.10;96383.63;5046807;28;20251;-76
2023/08/29 01:35:47;;;;;;;9.17;6.27;;;;;;;21.44;60.35;96383.19;5046299;28;20205;-77
2023/08/29 01:38:17;;;;;;;8.43;5.37;;;;;;;21.59;59.67;96365.00;5046529;28;20187;-82
2023/08/29 01:40:45;;;;;;;6.50;5.67;;;;;;;21.71;59.58;96380.44;5058997;28;20258;-82
2023/08/29 01:43:12;;;;;;;6.63;5.60;;;;;;;21.81;59.31;96381.19;5050635;28;20225;-81
2023/08/29 01:45:40;;;;;;;10.73;6.43;;;;;;;21.75;59.50;96381.78;5050072;28;20186;-84
2023/08/29 01:48:10;;;;;;;13.93;7.17;;;;;;;21.75;59.31;96383.56;5051180;28;20686;-77
2023/08/29 01:50:40;;;;;;;7.43;5.33;;;;;;;21.66;59.79;96389.75;5049943;28;20690;-77
2023/08/29 01:53:08;;;;;;;8.13;5.40;;;;;;;21.63;60.08;96377.75;5049989;28;20183;-80
2023/08/29 01:55:38;;;;;;;6.57;5.40;;;;;;;21.83;59.29;96379.22;5033439;28;20191;-80
2023/08/29 01:58:07;;;;;;;7.63;5.47;;;;;;;21.90;59.03;96376.78;5049825;28;20237;-80
2023/08/29 02:00:37;;;;;;;9.70;5.33;;;;;;;21.41;60.25;96369.50;5068715;28;20247;-85
2023/08/29 02:03:05;;;;;;;7.83;5.40;;;;;;;21.16;61.03;96367.63;5066695;28;20350;-79
2023/08/29 02:05:32;;;;;;;8.20;5.20;;;;;;;20.89;61.93;96369.34;5067002;28;20273;-79
2023/08/29 02:08:00;;;;;;;6.50;5.43;;;;;;;20.91;62.15;96367.38;5049218;28;20255;-79
2023/08/29 02:10:31;;;;;;;8.43;5.60;;;;;;;20.72;63.00;96371.94;5036379;28;20189;-75
2023/08/29 02:12:58;;;;;;;7.40;5.17;;;;;;;20.43;63.46;96353.69;5087044;28;20200;-76
2023/08/29 02:15:26;;;;;;;7.33;5.50;;;;;;;20.18;64.65;96359.59;5051888;28;20290;-76
2023/08/29 02:17:54;;;;;;;7.63;5.53;;;;;;;20.33;64.40;96366.06;5052979;28;20225;-79
2023/08/29 02:20:21;;;;;;;8.73;5.43;;;;;;;20.40;64.06;96364.53;5069298;28;20196;-79
2023/08/29 02:22:49;;;;;;;6.00;5.37;;;;;;;20.26;64.51;96354.47;5087964;28;20212;-76
2023/08/29 02:25:17;;;;;;;7.63;5.60;;;;;;;20.13;65.37;96359.22;5069033;28;20279;-76
2023/08/29 02:27:46;;;;;;;8.83;5.43;;;;;;;20.11;65.71;96355.91;5086975;28;20188;-76
2023/08/29 02:30:14;;;;;;;7.70;5.73;;;;;;;19.70;67.47;96359.75;5069052;28;20188;-76
2023/08/29 02:32:41;;;;;;;8.37;5.80;;;;;;;19.82;67.10;96345.50;5053154;28;20183;-76
2023/08/29 02:35:10;;;;;;;9.10;6.10;;;;;;;20.10;66.33;96356.88;5087911;28;20217;-77
2023/08/29 02:37:37;;;;;;;7.30;6.43;;;;;;;20.15;65.32;96349.38;5068566;28;20647;-74
2023/08/29 02:40:07;;;;;;;6.93;6.23;;;;;;;20.12;65.80;96352.28;5068394;28;20228;-75
2023/08/29 02:42:35;;;;;;;9.77;6.60;;;;;;;19.97;65.92;96353.75;5068751;28;20212;-78
2023/08/29 02:45:04;;;;;;;8.77;5.63;;;;;;;19.62;67.30;96332.56;5086733;28;20197;-75
2023/08/29 02:47:32;;;;;;;9.17;6.17;;;;;;;20.01;65.99;96344.59;5068947;28;20207;-76
2023/08/29 02:49:59;;;;;;;7.47;5.90;;;;;;;19.90;66.22;96350.03;5086496;28;20189;-75
2023/08/29 02:52:26;;;;;;;8.93;5.83;;;;;;;19.88;66.51;96349.34;5068917;28;20215;-79
2023/08/29 02:54:53;;;;;;;8.57;5.73;;;;;;;19.85;66.29;96339.94;5086649;28;20233;-76
2023/08/29 02:57:20;;;;;;;7.40;6.13;;;;;;;20.12;65.28;96347.88;5051647;28;20200;-76
2023/08/29 02:59:49;;;;;;;7.43;6.07;;;;;;;20.43;64.61;96356.31;5068492;28;20199;-76
2023/08/29 03:02:16;;;;;;;11.23;7.10;;;;;;;20.23;64.66;96347.72;5086593;28;20220;-77
2023/08/29 03:04:43;;;;;;;9.80;6.47;;;;;;;20.18;65.15;96354.34;5068670;28;20220;-75
2023/08/29 03:07:11;;;;;;;9.20;6.73;;;;;;;19.99;65.83;96357.06;5052475;28;20202;-76
2023/08/29 03:09:38;;;;;;;8.07;6.70;;;;;;;19.60;66.63;96326.63;5090428;28;20201;-77
2023/08/29 03:12:06;;;;;;;14.03;7.10;;;;;;;19.63;66.63;96339.47;5071819;28;20184;-74
2023/08/29 03:14:34;;;;;;;10.57;6.77;;;;;;;19.60;67.12;96337.13;5071955;28;20200;-74
2023/08/29 03:17:03;;;;;;;9.87;6.73;;;;;;;19.68;66.95;96347.75;5063344;28;20676;-75
2023/08/29 03:19:31;;;;;;;9.83;6.57;;;;;;;19.48;67.77;96347.81;5035368;28;20193;-76
2023/08/29 03:21:58;;;;;;;10.60;7.03;;;;;;;19.33;67.96;96325.56;5075568;28;20203;-76
2023/08/29 03:24:26;;;;;;;7.10;6.17;;;;;;;19.58;67.87;96344.34;5049687;28;20208;-76
2023/08/29 03:26:53;;;;;;;9.77;6.40;;;;;;;19.80;66.70;96350.09;5071796;28;20199;-82
2023/08/29 03:29:20;;;;;;;9.40;6.63;;;;;;;19.62;67.05;96341.25;5071543;28;20598;-75
2023/08/29 03:31:47;;;;;;;8.47;6.60;;;;;;;19.59;66.77;96328.41;5055040;28;20222;-75
2023/08/29 03:34:14;;;;;;;8.67;6.53;;;;;;;19.67;67.07;96336.41;5071080;28;20679;-79
2023/08/29 03:36:41;;;;;;;8.67;6.97;;;;;;;19.68;66.69;96317.03;5070632;28;20188;-74
2023/08/29 03:39:08;;;;;;;11.10;6.70;;;;;;;20.02;66.18;96331.31;5071070;28;20217;-75
2023/08/29 03:41:37;;;;;;;18.93;8.20;;;;;;;20.38;64.95;96337.50;5088711;28;20284;-79
2023/08/29 03:44:05;;;;;;;13.03;7.57;;;;;;;20.59;64.47;96340.72;5071312;28;20236;-79
2023/08/29 03:46:32;;;;;;;12.17;6.93;;;;;;;20.79;63.97;96330.91;5070988;28;20258;-78
2023/08/29 03:48:59;;;;;;;9.13;7.37;;;;;;;21.03;62.47;96329.34;5071112;28;20192;-75
2023/08/29 03:51:27;;;;;;;12.50;7.73;;;;;;;20.90;62.69;96339.38;5071033;28;20860;-77
2023/08/29 03:53:54;;;;;;;11.93;7.70;;;;;;;20.78;63.78;96335.31;5089228;28;20185;-75
2023/08/29 03:56:21;;;;;;;13.13;7.27;;;;;;;20.83;62.64;96319.94;5071258;28;20606;-77
2023/08/29 03:58:49;;;;;;;10.70;6.83;;;;;;;20.68;63.00;96308.25;5070993;28;20637;-76
2023/08/29 04:01:19;;;;;;;10.57;6.80;;;;;;;20.76;63.07;96332.00;5071133;28;20186;-75
2023/08/29 04:03:47;;;;;;;10.20;7.20;;;;;;;20.53;63.00;96307.09;5070514;28;20248;-78
2023/08/29 04:06:23;;;;;;;9.30;6.67;;;;;;;20.45;63.78;96328.06;5089206;28;20185;-80
2023/08/29 04:08:51;;;;;;;13.37;7.37;;;;;;;20.20;64.36;96323.50;5079914;28;20192;-76
2023/08/29 04:11:19;;;;;;;11.27;6.93;;;;;;;20.36;63.81;96313.16;5084799;28;20670;-76
2023/08/29 04:13:46;;;;;;;12.37;7.17;;;;;;;20.78;62.44;96316.91;5050901;28;20190;-78
2023/08/29 04:16:15;;;;;;;8.03;6.00;;;;;;;20.55;63.05;96328.81;5033594;28;20262;-75
2023/08/29 04:18:43;;;;;;;13.20;7.23;;;;;;;20.46;63.41;96332.38;5068367;28;20228;-79
2023/08/29 04:21:10;;;;;;;13.40;7.40;;;;;;;20.21;63.45;96275.22;5086196;28;20192;-77
2023/08/29 04:23:37;;;;;;;10.27;6.90;;;;;;;20.76;63.10;96328.53;5089592;28;20281;-81
2023/08/29 04:26:04;;;;;;;11.03;7.13;;;;;;;21.15;62.19;96322.03;5088748;28;20225;-76
2023/08/29 04:28:32;;;;;;;11.47;6.30;;;;;;;21.21;62.18;96321.41;5081095;28;20875;-78
2023/08/29 04:31:10;;;;;;;8.47;6.53;;;;;;;21.06;62.83;96318.50;5070638;28;20692;-80
2023/08/29 04:33:39;;;;;;;9.13;6.13;;;;;;;21.22;62.69;96324.88;5088425;28;20189;-79
2023/08/29 04:36:06;;;;;;;11.93;6.83;;;;;;;21.56;61.03;96307.34;5088876;28;20222;-76
2023/08/29 04:38:33;;;;;;;9.03;6.20;;;;;;;21.76;60.67;96306.16;5070320;28;20243;-80
2023/08/29 04:41:00;;;;;;;9.97;5.70;;;;;;;21.30;62.19;96306.50;5087945;28;20221;-81
2023/08/29 04:43:27;;;;;;;9.53;7.00;;;;;;;21.36;62.59;96308.53;5069891;28;20216;-79
2023/08/29 04:45:56;;;;;;;8.50;6.03;;;;;;;21.70;61.13;96312.06;5053867;28;20200;-79
2023/08/29 04:48:23;;;;;;;9.70;5.97;;;;;;;21.79;60.69;96311.94;5088767;28;20193;-82
2023/08/29 04:50:52;;;;;;;8.27;5.67;;;;;;;22.01;60.36;96297.41;5070131;28;20190;-77
2023/08/29 04:53:20;;;;;;;7.70;5.67;;;;;;;21.92;60.74;96305.44;5070302;28;20643;-79
2023/08/29 04:55:48;;;;;;;8.57;6.37;;;;;;;21.88;60.87;96311.00;5069888;28;20217;-82
2023/08/29 04:58:16;;;;;;;8.17;5.47;;;;;;;21.84;60.44;96308.88;5036316;28;20700;-75
2023/08/29 05:00:44;;;;;;;8.00;5.83;;;;;;;22.07;59.94;96311.78;5087452;28;20230;-80
2023/08/29 05:03:11;;;;;;;8.53;5.70;;;;;;;22.06;60.19;96292.47;5087303;28;20224;-75
2023/08/29 05:05:46;;;;;;;6.87;5.47;;;;;;;22.07;59.86;96304.66;5069857;28;20195;-81
2023/08/29 05:08:14;;;;;;;7.50;5.43;;;;;;;22.37;59.53;96300.66;5087143;28;20194;-75
2023/08/29 05:10:43;;;;;;;7.23;5.70;;;;;;;22.44;59.37;96301.69;5082389;28;20682;-80
2023/08/29 05:13:10;;;;;;;8.63;5.50;;;;;;;22.27;59.61;96284.97;5057461;28;20685;-81
2023/08/29 05:15:39;;;;;;;7.80;6.00;;;;;;;22.39;59.71;96302.16;5056749;28;20676;-81
2023/08/29 05:18:10;;;;;;;9.10;5.53;;;;;;;22.46;59.22;96284.69;5040798;28;20195;-78
2023/08/29 05:20:37;;;;;;;7.70;5.87;;;;;;;23.10;58.92;96294.53;5071888;28;20222;-77
2023/08/29 05:23:05;;;;;;;9.50;5.60;;;;;;;23.55;56.17;96299.34;5056961;28;20234;-76
2023/08/29 05:25:32;;;;;;;10.17;5.60;;;;;;;23.79;55.77;96309.88;5043878;28;20200;-76
2023/08/29 05:28:00;;;;;;;9.57;5.40;;;;;;;24.28;54.68;96304.44;5091846;28;20201;-78
2023/08/29 05:30:30;;;;;;;11.23;5.73;;;;;;;24.58;54.26;96308.91;5088509;28;20610;-76
2023/08/29 05:32:57;;;;;;;8.67;5.70;;;;;;;24.70;53.24;96296.94;5057455;28;20187;-78
2023/08/29 05:35:25;;;;;;;14.90;7.07;;;;;;;24.81;53.15;96300.03;5090164;28;20219;-80
2023/08/29 05:37:53;;;;;;;11.70;6.23;;;;;;;24.84;52.64;96318.22;5071697;28;20199;-82
2023/08/29 05:40:24;;;;;;;9.20;5.80;;;;;;;24.88;51.95;96297.50;5071991;28;20710;-83
2023/08/29 05:42:51;;;;;;;9.50;5.90;;;;;;;24.95;51.81;96304.59;5089771;28;20229;-85
2023/08/29 05:45:20;;;;;;;7.33;5.30;;;;;;;24.46;53.26;96310.31;5054214;28;20199;-83
2023/08/29 05:47:47;;;;;;;8.43;5.53;;;;;;;24.13;54.15;96321.03;5055642;28;20216;-78
2023/08/29 05:50:16;;;;;;;10.77;6.27;;;;;;;23.91;55.53;96321.72;5093845;28;20195;-79
2023/08/29 05:52:44;;;;;;;7.57;5.90;;;;;;;24.27;54.39;96314.22;5072086;28;20193;-79
2023/08/29 05:55:12;;;;;;;9.43;6.00;;;;;;;24.62;52.65;96308.41;5060573;28;20726;-76
2023/08/29 05:57:40;;;;;;;9.10;6.13;;;;;;;25.06;51.88;96318.41;5079237;28;20637;-78
2023/08/29 06:00:12;;;;;;;10.07;6.47;;;;;;;25.24;51.97;96326.88;5078663;28;20204;-74
2023/08/29 06:02:44;;;;;;;9.90;6.33;;;;;;;25.30;51.67;96321.72;5076805;28;20218;-81
2023/08/29 06:05:12;;;;;;;10.13;6.53;;;;;;;25.18;52.81;96323.13;5089230;28;20596;-86
2023/08/29 06:07:40;;;;;;;10.90;6.33;;;;;;;24.94;53.58;96310.88;5053153;28;20273;-81
2023/08/29 06:10:08;;;;;;;9.97;6.27;;;;;;;24.85;54.38;96327.00;5090817;28;20277;-82
2023/08/29 06:12:35;;;;;;;10.83;6.57;;;;;;;24.71;54.61;96310.00;5057045;28;20453;-80
2023/08/29 06:15:06;;;;;;;10.73;6.67;;;;;;;25.16;54.18;96306.59;5075793;28;20215;-83
2023/08/29 06:18:16;;;;;;;11.30;6.33;;;;;;;25.41;51.74;96328.44;5094201;28;20515;-78
2023/08/29 06:21:38;;;;;;;9.70;6.10;;;;;;;25.69;51.34;96324.19;5071637;28;20200;-77
2023/08/29 06:24:21;;;;;;;9.90;6.53;;;;;;;25.79;50.38;96322.09;5089638;28;20232;-78
2023/08/29 06:26:49;;;;;;;7.97;5.73;;;;;;;25.98;50.14;96320.75;5092529;28;20193;-86
2023/08/29 06:29:16;;;;;;;8.47;5.43;;;;;;;26.16;50.37;96314.09;5093522;28;20189;-80
2023/08/29 06:31:45;;;;;;;9.03;6.23;;;;;;;26.25;49.83;96312.19;5041067;28;20668;-75
2023/08/29 06:34:15;;;;;;;7.90;5.90;;;;;;;26.24;48.22;96305.19;5069196;28;20207;-85
2023/08/29 06:36:42;;;;;;;8.53;5.73;;;;;;;25.94;49.14;96308.84;5092732;28;20223;-79
2023/08/29 06:39:10;;;;;;;13.17;5.27;;;;;;;25.91;49.15;96303.91;5071505;28;20184;-80
2023/08/29 06:41:37;;;;;;;6.23;5.20;;;;;;;26.36;48.87;96322.31;5071792;28;20707;-77
2023/08/29 06:44:05;;;;;;;9.37;5.93;;;;;;;26.66;47.44;96315.97;5084975;28;20624;-76
2023/08/29 06:46:34;;;;;;;6.77;5.07;;;;;;;26.56;45.05;96320.75;5074097;28;20211;-80
2023/08/29 06:49:05;;;;;;;6.47;4.97;;;;;;;26.49;45.74;96293.28;5088072;28;20530;-77
2023/08/29 06:51:34;;;;;;;5.80;4.63;;;;;;;26.86;44.68;96321.50;5078822;28;20262;-80
2023/08/29 06:54:03;;;;;;;6.90;4.97;;;;;;;26.86;43.72;96316.19;5057534;28;20208;-79
2023/08/29 06:56:31;;;;;;;8.63;5.20;;;;;;;26.96;44.82;96314.03;5056915;28;20192;-82
2023/08/29 06:58:59;;;;;;;9.73;4.93;;;;;;;27.05;43.21;96292.50;5044058;28;20192;-81
2023/08/29 07:01:26;;;;;;;8.20;5.07;;;;;;;27.47;42.09;96314.78;5094526;28;20197;-81
2023/08/29 07:03:59;;;;;;;6.10;4.93;;;;;;;27.29;42.77;96301.91;5095222;28;20711;-83
2023/08/29 07:06:27;;;;;;;8.43;4.97;;;;;;;26.98;43.49;96296.91;5076972;28;20699;-78
2023/08/29 07:08:57;;;;;;;7.30;5.10;;;;;;;27.31;42.89;96311.34;5094152;28;20275;-84
2023/08/29 07:12:04;;;;;;;6.13;4.87;;;;;;;27.84;43.43;96314.44;5058685;28;20283;-80
2023/08/29 07:15:26;;;;;;;11.07;6.07;;;;;;;28.13;41.52;96317.72;5075737;28;20741;-77
2023/08/29 07:18:47;;;;;;;11.27;5.83;;;;;;;28.23;40.52;96319.22;5072517;28;20189;-77
2023/08/29 07:22:07;;;;;;;6.30;5.17;;;;;;;28.31;39.74;96313.72;5074342;28;20192;-83
2023/08/29 07:25:28;;;;;;;8.67;4.20;;;;;;;28.65;38.79;96301.19;5074100;28;20231;-77
2023/08/29 07:28:49;;;;;;;7.67;5.20;;;;;;;28.58;39.36;96304.88;5054659;28;20237;-75
2023/08/29 07:32:10;;;;;;;6.03;4.27;;;;;;;28.87;36.56;96304.56;5076174;28;20292;-79
2023/08/29 07:34:55;;;;;;;6.60;4.03;;;;;;;28.60;36.94;96308.97;5046041;28;20292;-76
2023/08/29 07:37:27;;;;;;;8.30;4.33;;;;;;;27.81;37.95;96281.06;5046049;28;20200;-76
2023/08/29 07:39:54;;;;;;;6.23;3.63;;;;;;;28.31;36.35;96292.41;5079015;28;20221;-77
2023/08/29 07:42:22;;;;;;;4.37;3.67;;;;;;;27.94;37.81;96280.31;5073551;28;20189;-78
2023/08/29 07:44:49;;;;;;;6.90;3.93;;;;;;;27.76;38.20;96278.16;5077686;28;20244;-79
2023/08/29 07:47:17;;;;;;;8.60;4.20;;;;;;;28.34;36.89;96284.84;5052660;28;20201;-77
2023/08/29 07:49:44;;;;;;;4.77;4.17;;;;;;;28.40;37.54;96270.72;5050939;28;20704;-81
2023/08/29 07:52:14;;;;;;;7.37;4.17;;;;;;;28.55;37.57;96273.25;5017441;28;20296;-80
2023/08/29 07:54:42;;;;;;;10.30;4.80;;;;;;;28.82;36.64;96297.16;5049274;28;20677;-81
2023/08/29 07:57:09;;;;;;;4.63;3.40;;;;;;;28.64;36.04;96296.91;5067994;28;20746;-78
2023/08/29 07:59:37;;;;;;;7.33;4.80;;;;;;;28.72;35.89;96288.72;5033554;28;20718;-76
2023/08/29 08:02:05;;;;;;;9.30;4.73;;;;;;;28.76;35.54;96291.81;5068273;28;20194;-76
2023/08/29 08:04:34;;;;;;;6.00;4.03;;;;;;;29.19;35.61;96297.66;5050368;28;20241;-81
2023/08/29 08:07:01;;;;;;;5.67;4.27;;;;;;;29.41;35.35;96296.44;5068087;28;20189;-82
2023/08/29 08:09:29;;;;;;;7.63;4.03;;;;;;;29.61;35.02;96286.59;5033845;28;20192;-79
2023/08/29 08:11:56;;;;;;;5.67;3.80;;;;;;;29.47;36.00;96279.63;5033978;28;20564;-81
2023/08/29 08:14:27;;;;;;;6.67;4.23;;;;;;;29.85;35.71;96283.31;5050288;28;20258;-82
2023/08/29 08:16:55;;;;;;;6.63;4.00;;;;;;;29.92;35.54;96272.63;5033616;28;20217;-79
2023/08/29 08:19:23;;;;;;;7.13;4.90;;;;;;;29.62;36.21;96282.88;5067769;28;20634;-77
2023/08/29 08:21:51;;;;;;;6.43;4.40;;;;;;;29.62;36.17;96262.38;5019443;28;20247;-79
2023/08/29 08:24:19;;;;;;;7.23;4.80;;;;;;;29.72;36.61;96277.94;5070672;28;20323;-80
2023/08/29 08:26:47;;;;;;;6.87;4.83;;;;;;;29.55;37.49;96271.41;5076121;28;20192;-77
2023/08/29 08:29:15;;;;;;;5.90;4.93;;;;;;;29.24;37.97;96261.38;5044619;28;20216;-80
2023/08/29 08:31:42;;;;;;;7.93;5.70;;;;;;;29.28;38.10;96264.44;5063885;28;20600;-76
2023/08/29 08:34:11;;;;;;;10.23;6.10;;;;;;;29.50;38.56;96269.34;5070865;28;20288;-76
2023/08/29 08:36:40;;;;;;;16.33;7.03;;;;;;;29.32;38.89;96249.66;5069060;28;20204;-77
2023/08/29 08:39:08;;;;;;;6.93;5.00;;;;;;;29.17;38.90;96262.38;5049559;28;20271;-78
2023/08/29 08:41:38;;;;;;;8.57;6.10;;;;;;;29.09;39.20;96252.69;5049680;28;20241;-81
2023/08/29 08:44:08;;;;;;;8.70;5.10;;;;;;;29.23;39.37;96261.53;5069564;28;20221;-80
2023/08/29 08:46:37;;;;;;;8.90;5.87;;;;;;;29.48;38.98;96258.06;5017569;28;20254;-78
2023/08/29 08:49:06;;;;;;;9.30;7.07;;;;;;;29.73;39.36;96258.28;5050219;28;20310;-77
2023/08/29 08:51:37;;;;;;;11.57;6.70;;;;;;;29.47;38.88;96231.59;5069201;28;20255;-79
2023/08/29 08:54:07;;;;;;;9.40;6.30;;;;;;;29.70;39.01;96259.47;5050329;28;20190;-78
2023/08/29 08:56:35;;;;;;;9.57;6.03;;;;;;;29.43;39.29;96241.84;5067747;28;20196;-76
2023/08/29 08:59:03;;;;;;;8.43;6.73;;;;;;;29.27;40.11;96199.56;5067568;28;20207;-77
2023/08/29 09:01:30;;;;;;;12.50;8.97;;;;;;;29.77;39.05;96227.47;5067401;28;20216;-77
2023/08/29 09:03:58;;;;;;;8.33;7.23;;;;;;;29.99;39.43;96234.19;5067617;28;20224;-78
2023/08/29 09:06:26;;;;;;;9.40;6.70;;;;;;;30.03;38.31;96230.06;5048709;28;20213;-79
2023/08/29 09:09:16;;;;;;;11.73;7.83;;;;;;;29.65;39.70;96186.41;5066620;28;20192;-79
2023/08/29 09:12:37;;;;;;;11.27;8.13;;;;;;;30.13;39.67;96233.09;5084659;28;20202;-76
2023/08/29 09:15:19;;;;;;;11.90;8.60;;;;;;;29.67;39.90;96208.34;5068394;28;20192;-78
2023/08/29 09:17:51;;;;;;;12.93;8.43;;;;;;;29.98;40.00;96218.38;5093108;28;20200;-77
2023/08/29 09:20:21;;;;;;;18.30;10.37;;;;;;;30.08;39.18;96187.50;5070001;28;20586;-83
2023/08/29 09:22:51;;;;;;;13.20;8.30;;;;;;;30.55;38.58;96199.63;5076792;28;20191;-78
2023/08/29 09:25:18;;;;;;;10.53;7.77;;;;;;;30.25;39.22;96206.56;5087383;28;20240;-80
2023/08/29 09:27:49;;;;;;;11.43;9.47;;;;;;;30.26;38.67;96216.19;5068784;28;20579;-81
2023/08/29 09:30:17;;;;;;;12.70;8.97;;;;;;;30.45;38.77;96210.81;5068986;28;20254;-80
2023/08/29 09:32:52;;;;;;;12.77;7.80;;;;;;;30.22;39.20;96199.78;5068610;28;20193;-80
2023/08/29 09:35:22;;;;;;;13.33;7.80;;;;;;;30.19;39.23;96197.53;5068529;28;20203;-79
2023/08/29 09:37:55;;;;;;;10.03;7.40;;;;;;;30.01;39.50;96196.56;5069298;28;20176;-76
2023/08/29 09:40:29;;;;;;;10.77;7.47;;;;;;;30.39;38.50;96200.97;5066005;28;20293;-75
2023/08/29 09:43:08;;;;;;;10.03;7.03;;;;;;;30.66;37.91;96196.28;5068558;28;20283;-77
2023/08/29 09:45:37;;;;;;;7.83;6.83;;;;;;;30.60;37.30;96204.34;5048836;28;20248;-78
2023/08/29 09:48:08;;;;;;;10.00;6.10;;;;;;;30.54;37.90;96214.84;5066550;28;20679;-80
2023/08/29 09:50:37;;;;;;;9.03;6.37;;;;;;;30.76;36.73;96193.13;5065882;28;21000;-81
2023/08/29 09:53:07;;;;;;;8.97;6.17;;;;;;;31.06;37.27;96218.25;5064319;28;20215;-77
2023/08/29 09:55:40;;;;;;;13.87;5.80;;;;;;;30.94;37.49;96222.66;5047887;28;20189;-77
2023/08/29 09:58:10;;;;;;;9.83;6.53;;;;;;;30.76;37.47;96209.19;5064473;28;20197;-76
2023/08/29 10:00:41;;;;;;;9.13;6.35;;;;;;;31.06;36.92;96204.88;5066277;28;20200;-75
2023/08/29 10:03:10;;;;;;;12.93;7.10;;;;;;;31.30;36.59;96198.72;5065036;28;20277;-77
2023/08/29 10:05:45;;;;;;;8.00;5.67;;;;;;;30.69;38.17;96197.69;5076110;28;20221;-77
2023/08/29 10:08:30;;;;;;;9.60;5.53;;;;;;;30.92;37.61;96200.66;5078512;28;20189;-79
2023/08/29 10:11:00;;;;;;;7.67;5.77;;;;;;;30.90;37.08;96184.84;5070975;28;20200;-79
2023/08/29 10:13:28;;;;;;;9.82;5.53;;;;;;;30.73;37.39;96196.25;5065591;28;20291;-79
2023/08/29 10:15:57;;;;;;;7.53;5.10;;;;;;;30.82;37.04;96185.06;5047936;28;20205;-80
2023/08/29 10:18:27;;;;;;;7.55;5.57;;;;;;;31.17;36.23;96199.66;5065578;28;20185;-79
2023/08/29 10:20:56;;;;;;;8.30;5.13;;;;;;;31.35;36.58;96180.13;5064641;28;20735;-78
2023/08/29 10:23:26;;;;;;;7.03;5.10;;;;;;;31.21;36.17;96186.66;5065733;28;20200;-78
2023/08/29 10:25:58;;;;;;;10.02;5.38;;;;;;;31.27;36.82;96204.50;5064303;28;20258;-76
2023/08/29 10:28:26;;;;;;;11.52;5.93;;;;;;;31.28;36.79;96171.38;5064116;28;20181;-78
2023/08/29 10:30:58;;;;;;;9.20;5.50;;;;;;;31.41;36.50;96179.28;5064518;28;20212;-77
2023/08/29 10:33:26;;;;;;;10.13;5.40;;;;;;;31.37;36.43;96167.34;5048380;28;20194;-80
2023/08/29 10:35:53;;;;;;;8.70;5.43;;;;;;;31.48;36.54;96173.88;5065387;28;20639;-78
2023/08/29 10:38:24;;;;;;;8.93;6.07;;;;;;;31.91;36.43;96161.25;5063944;28;20193;-77
2023/08/29 10:41:06;;;;;;;11.57;6.05;;;;;;;32.03;35.48;96157.63;5064153;28;20292;-76
2023/08/29 10:43:36;;;;;;;9.63;5.45;;;;;;;32.14;35.27;96172.13;5047580;28;20193;-78
2023/08/29 10:46:10;;;;;;;8.65;4.75;;;;;;;32.03;34.54;96165.66;5063823;28;20688;-79
2023/08/29 10:48:51;;;;;;;9.25;5.63;;;;;;;31.85;34.82;96171.00;5065459;28;20269;-77
2023/08/29 10:51:23;;;;;;;8.18;4.63;;;;;;;32.05;34.97;96158.22;5064538;28;20192;-77
2023/08/29 10:54:05;;;;;;;7.25;5.50;;;;;;;31.93;35.44;96157.34;5065993;28;20569;-76
2023/08/29 10:56:42;;;;;;;8.27;5.05;;;;;;;31.71;35.31;96140.06;5072165;28;20208;-77
2023/08/29 10:59:31;;;;;;;9.55;5.00;;;;;;;31.93;34.45;96153.84;5076936;28;20189;-78
2023/08/29 11:02:27;;;;;;;6.40;5.32;;;;;;;31.89;34.59;96153.44;5071313;28;20189;-80
2023/08/29 11:05:03;;;;;;;9.07;5.53;;;;;;;32.15;34.69;96159.56;5064639;28;20738;-79
2023/08/29 11:07:34;;;;;;;9.32;5.22;;;;;;;32.28;33.69;96157.50;5064208;28;20248;-79
2023/08/29 11:10:24;;;;;;;9.93;4.88;;;;;;;32.32;33.81;96144.47;5065450;28;20224;-80
2023/08/29 11:13:07;;;;;;;19.98;5.80;;;;;;;32.48;34.00;96131.25;5065062;28;20193;-77
2023/08/29 11:15:50;;;;;;;8.57;5.28;;;;;;;32.77;33.68;96149.19;5063609;28;20197;-81
2023/08/29 11:18:34;;;;;;;7.20;5.50;;;;;;;32.86;33.37;96136.25;5064189;28;20193;-79
2023/08/29 11:21:06;;;;;;;7.70;5.93;;;;;;;33.01;33.00;96127.81;5065111;28;20235;-77
2023/08/29 11:23:40;;;;;;;19.00;6.15;;;;;;;33.01;33.26;96128.63;5064072;28;20201;-79
2023/08/29 11:26:08;;;;;;;8.95;6.40;;;;;;;32.69;33.57;96113.84;5065182;28;20231;-77
2023/08/29 11:28:45;;;;;;;9.38;5.55;;;;;;;32.55;34.14;96136.53;5066223;28;20194;-79
2023/08/29 11:31:12;;;;;;;6.45;4.72;;;;;;;32.13;35.11;96110.72;5067757;28;20193;-79
2023/08/29 11:33:39;;;;;;;8.05;4.68;;;;;;;31.82;35.18;96092.97;5067430;28;20189;-77
2023/08/29 11:36:09;;;;;;;9.05;5.45;;;;;;;32.00;34.85;96076.88;5067743;28;20271;-78
2023/08/29 11:38:37;;;;;;;11.30;5.30;;;;;;;32.32;34.58;96106.94;5051496;28;20193;-76
2023/08/29 11:41:05;;;;;;;8.27;5.28;;;;;;;32.32;33.59;96089.00;5034932;28;20372;-76
2023/08/29 11:43:54;;;;;;;9.35;5.22;;;;;;;31.95;34.73;96087.44;5071826;28;20186;-76
2023/08/29 11:46:46;;;;;;;9.57;4.63;;;;;;;32.41;34.07;96078.78;5068823;28;20190;-78
2023/08/29 11:49:15;;;;;;;7.13;4.60;;;;;;;32.66;33.87;96082.13;5059980;28;20231;-78
2023/08/29 11:51:43;;;;;;;6.35;4.07;;;;;;;32.87;33.74;96081.56;5081538;28;20189;-78